Clinton, Utah
Current Conditions -  °F | °C
As of 6:58 AM on Monday 20 Oct 2014 (Local Time) from KHIF Reporting Station
Clear Clear  
Wind Chill: 43°   Ceiling: Unl
Heat Index: 50°   Visibility: 10mi
Dew Point: 31°   Wind: 21mph
Humidity: 50%   Direction: 110°ESE
Pressure: 30.06"   Gusts: NA
Location:  41.123°N, 112.063°W
Report Text: KHIF 201258Z AUTO 11018KT 10SM CLR 10/00 A3006 RMK AO2 SLP145 T00981003
Loading
Personal Weather Stations






























Interactive Weather Map
Tropical Storm Tracking
New forecast layout! Learn more

10-Day Weather Forecast

Advertisements
Track Severe Weather on mobile